sensor_id;sensor_type;location;lat;lon;timestamp;temperature;humidity
29255;DHT22;16277;48.890;2.306;2023-05-17T00:11:28;16.00;94.30
29255;DHT22;16277;48.890;2.306;2023-05-17T00:26:33;16.20;93.70
29255;DHT22;16277;48.890;2.306;2023-05-17T00:41:38;16.10;93.90
29255;DHT22;16277;48.890;2.306;2023-05-17T00:56:43;16.00;93.90
29255;DHT22;16277;48.890;2.306;2023-05-17T01:11:56;15.60;94.90
29255;DHT22;16277;48.890;2.306;2023-05-17T01:27:06;15.90;95.10
29255;DHT22;16277;48.890;2.306;2023-05-17T01:42:19;16.10;94.90
29255;DHT22;16277;48.890;2.306;2023-05-17T01:57:30;15.70;96.10
29255;DHT22;16277;48.890;2.306;2023-05-17T02:12:35;15.80;96.30
29255;DHT22;16277;48.890;2.306;2023-05-17T02:27:40;16.10;96.30
29255;DHT22;16277;48.890;2.306;2023-05-17T02:42:44;16.30;96.20
29255;DHT22;16277;48.890;2.306;2023-05-17T02:57:49;16.20;96.60
29255;DHT22;16277;48.890;2.306;2023-05-17T03:12:54;16.10;97.10
29255;DHT22;16277;48.890;2.306;2023-05-17T03:28:03;15.90;97.60
29255;DHT22;16277;48.890;2.306;2023-05-17T03:43:08;16.00;98.00
29255;DHT22;16277;48.890;2.306;2023-05-17T03:58:13;15.60;98.80
29255;DHT22;16277;48.890;2.306;2023-05-17T04:13:18;15.90;98.90
29255;DHT22;16277;48.890;2.306;2023-05-17T04:28:23;15.90;99.40
29255;DHT22;16277;48.890;2.306;2023-05-17T04:43:28;15.90;98.90
29255;DHT22;16277;48.890;2.306;2023-05-17T04:58:33;15.70;99.00
29255;DHT22;16277;48.890;2.306;2023-05-17T05:13:38;15.60;99.40
29255;DHT22;16277;48.890;2.306;2023-05-17T05:28:44;15.40;99.70
29255;DHT22;16277;48.890;2.306;2023-05-17T05:43:49;15.60;99.30
29255;DHT22;16277;48.890;2.306;2023-05-17T05:58:55;15.50;99.40
29255;DHT22;16277;48.890;2.306;2023-05-17T06:14:01;15.50;99.20
29255;DHT22;16277;48.890;2.306;2023-05-17T06:29:05;15.80;99.30
29255;DHT22;16277;48.890;2.306;2023-05-17T06:44:11;15.70;98.40
29255;DHT22;16277;48.890;2.306;2023-05-17T06:59:16;15.50;98.40
29255;DHT22;16277;48.890;2.306;2023-05-17T07:14:20;16.00;97.50
29255;DHT22;16277;48.890;2.306;2023-05-17T07:29:25;16.10;97.60
29255;DHT22;16277;48.890;2.306;2023-05-17T07:44:29;15.70;98.50
29255;DHT22;16277;48.890;2.306;2023-05-17T07:59:34;15.70;98.00
29255;DHT22;16277;48.890;2.306;2023-05-17T08:14:39;15.80;98.10
29255;DHT22;16277;48.890;2.306;2023-05-17T08:29:44;16.10;97.30
29255;DHT22;16277;48.890;2.306;2023-05-17T08:44:48;16.50;96.80
29255;DHT22;16277;48.890;2.306;2023-05-17T08:59:53;16.30;95.10
29255;DHT22;16277;48.890;2.306;2023-05-17T09:15:12;16.40;94.70
29255;DHT22;16277;48.890;2.306;2023-05-17T09:30:18;16.50;93.40
29255;DHT22;16277;48.890;2.306;2023-05-17T09:45:23;16.20;92.90
29255;DHT22;16277;48.890;2.306;2023-05-17T10:00:27;17.00;92.40
29255;DHT22;16277;48.890;2.306;2023-05-17T10:15:34;17.10;91.70
29255;DHT22;16277;48.890;2.306;2023-05-17T10:30:41;17.10;90.60
29255;DHT22;16277;48.890;2.306;2023-05-17T10:45:46;17.60;90.10
29255;DHT22;16277;48.890;2.306;2023-05-17T11:00:52;17.70;89.60
29255;DHT22;16277;48.890;2.306;2023-05-17T11:16:05;17.90;84.00
29255;DHT22;16277;48.890;2.306;2023-05-17T11:31:10;18.30;83.90
29255;DHT22;16277;48.890;2.306;2023-05-17T11:46:22;18.60;83.60
29255;DHT22;16277;48.890;2.306;2023-05-17T12:01:27;18.70;81.00
29255;DHT22;16277;48.890;2.306;2023-05-17T12:16:33;19.00;81.30
29255;DHT22;16277;48.890;2.306;2023-05-17T12:31:41;19.10;83.60
29255;DHT22;16277;48.890;2.306;2023-05-17T12:46:47;19.60;80.30
29255;DHT22;16277;48.890;2.306;2023-05-17T13:01:57;19.50;81.70
29255;DHT22;16277;48.890;2.306;2023-05-17T13:17:03;19.20;82.40
29255;DHT22;16277;48.890;2.306;2023-05-17T13:32:09;19.70;81.70
29255;DHT22;16277;48.890;2.306;2023-05-17T13:47:14;20.40;78.60
29255;DHT22;16277;48.890;2.306;2023-05-17T14:02:19;20.00;77.90
29255;DHT22;16277;48.890;2.306;2023-05-17T14:17:24;21.30;77.00
29255;DHT22;16277;48.890;2.306;2023-05-17T14:32:28;21.10;75.80
29255;DHT22;16277;48.890;2.306;2023-05-17T14:47:33;25.00;66.20
29255;DHT22;16277;48.890;2.306;2023-05-17T15:02:39;27.90;57.00
29255;DHT22;16277;48.890;2.306;2023-05-17T15:17:43;26.10;58.40
29255;DHT22;16277;48.890;2.306;2023-05-17T15:32:48;23.20;65.30
29255;DHT22;16277;48.890;2.306;2023-05-17T15:47:53;26.30;57.80
29255;DHT22;16277;48.890;2.306;2023-05-17T16:02:59;28.40;56.10
29255;DHT22;16277;48.890;2.306;2023-05-17T16:18:04;26.10;56.50
29255;DHT22;16277;48.890;2.306;2023-05-17T16:33:08;25.90;58.70
29255;DHT22;16277;48.890;2.306;2023-05-17T16:48:16;25.60;57.10
29255;DHT22;16277;48.890;2.306;2023-05-17T17:03:21;23.10;64.70
29255;DHT22;16277;48.890;2.306;2023-05-17T17:18:25;24.00;64.40
29255;DHT22;16277;48.890;2.306;2023-05-17T17:33:31;24.70;62.40
29255;DHT22;16277;48.890;2.306;2023-05-17T17:48:35;24.40;63.80
29255;DHT22;16277;48.890;2.306;2023-05-17T18:03:40;23.20;66.10
29255;DHT22;16277;48.890;2.306;2023-05-17T18:18:44;22.60;64.70
29255;DHT22;16277;48.890;2.306;2023-05-17T18:33:49;22.40;66.80
29255;DHT22;16277;48.890;2.306;2023-05-17T18:48:57;21.60;68.60
29255;DHT22;16277;48.890;2.306;2023-05-17T19:04:01;21.00;69.80
29255;DHT22;16277;48.890;2.306;2023-05-17T19:19:07;20.60;70.70
29255;DHT22;16277;48.890;2.306;2023-05-17T19:34:12;20.20;72.50
29255;DHT22;16277;48.890;2.306;2023-05-17T19:49:16;20.00;72.90
29255;DHT22;16277;48.890;2.306;2023-05-17T20:04:21;19.90;74.00
29255;DHT22;16277;48.890;2.306;2023-05-17T20:19:26;19.50;74.30
29255;DHT22;16277;48.890;2.306;2023-05-17T20:34:34;19.40;75.40
29255;DHT22;16277;48.890;2.306;2023-05-17T20:49:39;19.20;75.70
29255;DHT22;16277;48.890;2.306;2023-05-17T21:04:43;19.10;76.00
29255;DHT22;16277;48.890;2.306;2023-05-17T21:19:48;19.00;76.90
29255;DHT22;16277;48.890;2.306;2023-05-17T21:34:53;18.50;78.40
29255;DHT22;16277;48.890;2.306;2023-05-17T21:49:57;18.80;79.30
29255;DHT22;16277;48.890;2.306;2023-05-17T22:05:02;18.50;79.60
29255;DHT22;16277;48.890;2.306;2023-05-17T22:20:07;18.30;80.10
29255;DHT22;16277;48.890;2.306;2023-05-17T22:35:13;17.90;80.80
29255;DHT22;16277;48.890;2.306;2023-05-17T22:50:18;17.80;82.00
29255;DHT22;16277;48.890;2.306;2023-05-17T23:05:22;17.70;82.40
29255;DHT22;16277;48.890;2.306;2023-05-17T23:20:27;17.50;83.90
29255;DHT22;16277;48.890;2.306;2023-05-17T23:35:32;17.40;84.20
29255;DHT22;16277;48.890;2.306;2023-05-17T23:50:37;17.60;84.40
